Time;durP1;ratioP1;P1;durP2;ratioP2;P2;SDS_P1;SDS_P2;PMS_P1;PMS_P2;Temp;Humidity;BMP_temperature;BMP_pressure;BME280_temperature;BME280_humidity;BME280_pressure;Samples;Min_cycle;Max_cycle;Signal;HPM_P1;HPM_P2
2021/05/17 00:01:41;;;;;;;3.30;1.38;;;10.60;99.90;;;;;;5015345;28;20080;-67
2021/05/17 00:04:13;;;;;;;3.92;1.23;;;10.50;99.90;;;;;;5016234;28;20104;-67
2021/05/17 00:06:42;;;;;;;3.58;1.48;;;10.50;99.90;;;;;;5030076;28;20073;-67
2021/05/17 00:09:11;;;;;;;7.80;1.80;;;10.50;99.90;;;;;;5026131;28;20054;-67
2021/05/17 00:12:18;;;;;;;3.83;1.63;;;10.40;99.90;;;;;;5032425;28;20076;-67
2021/05/17 00:14:55;;;;;;;5.20;1.90;;;10.40;99.90;;;;;;5032858;28;20058;-67
2021/05/17 00:21:41;;;;;;;5.40;1.60;;;10.40;99.90;;;;;;5026124;28;20084;-66
2021/05/17 00:24:15;;;;;;;4.40;1.98;;;10.30;99.90;;;;;;5021312;28;20095;-66
2021/05/17 00:27:18;;;;;;;3.05;1.48;;;10.30;99.90;;;;;;5015832;28;20037;-67
2021/05/17 00:30:04;;;;;;;5.32;1.83;;;10.20;99.90;;;;;;5032662;28;20116;-67
2021/05/17 00:39:55;;;;;;;4.00;1.67;;;10.10;99.90;;;;;;5016714;28;20045;-67
2021/05/17 00:42:40;;;;;;;6.05;1.85;;;10.00;99.90;;;;;;5036017;28;20459;-67
2021/05/17 00:45:11;;;;;;;3.17;1.58;;;10.00;99.90;;;;;;5024118;28;20136;-67
2021/05/17 00:51:45;;;;;;;5.05;1.45;;;9.90;99.90;;;;;;5035779;28;20516;-67
2021/05/17 00:54:16;;;;;;;4.28;1.83;;;9.90;99.90;;;;;;5036325;28;20049;-67
2021/05/17 00:56:45;;;;;;;6.43;1.88;;;9.80;99.90;;;;;;5036090;28;20063;-67
2021/05/17 00:59:17;;;;;;;8.30;2.10;;;9.90;99.90;;;;;;5016718;28;20049;-67
2021/05/17 01:01:45;;;;;;;3.08;1.70;;;9.90;99.90;;;;;;5033342;28;20071;-67
2021/05/17 01:04:50;;;;;;;4.78;2.00;;;9.90;99.90;;;;;;5036421;28;20056;-67
2021/05/17 01:07:46;;;;;;;4.28;1.75;;;9.90;99.90;;;;;;5027424;28;20042;-67
2021/05/17 01:10:20;;;;;;;4.32;1.55;;;9.90;99.90;;;;;;5026460;28;20042;-67
2021/05/17 01:13:06;;;;;;;5.05;2.10;;;10.00;99.90;;;;;;5023796;28;20061;-67
2021/05/17 01:19:31;;;;;;;4.00;1.40;;;10.10;99.90;;;;;;5016172;28;20045;-67
2021/05/17 01:22:22;;;;;;;4.93;2.00;;;10.20;99.90;;;;;;5018091;28;20077;-67
2021/05/17 01:24:50;;;;;;;3.50;1.70;;;10.20;99.90;;;;;;5027938;28;20049;-67
2021/05/17 01:27:22;;;;;;;7.40;1.88;;;10.30;99.90;;;;;;4999933;28;20053;-67
2021/05/17 01:30:06;;;;;;;4.20;1.73;;;10.30;99.90;;;;;;5029928;28;20125;-67
2021/05/17 01:40:01;;;;;;;2.88;1.63;;;10.40;99.90;;;;;;5020179;28;20049;-67
2021/05/17 01:42:41;;;;;;;;;;;10.40;99.90;;;;;;5016326;28;20447;-67
2021/05/17 01:45:31;;;;;;;3.08;1.33;;;10.40;99.90;;;;;;5016480;28;19921;-66
2021/05/17 01:48:04;;;;;;;5.65;2.00;;;10.40;99.90;;;;;;5018230;28;20120;-67
2021/05/17 01:50:30;;;;;;;2.88;1.60;;;10.50;99.90;;;;;;5014248;28;20061;-67
2021/05/17 01:53:22;;;;;;;5.50;2.30;;;10.50;99.90;;;;;;5015149;28;20048;-67
2021/05/17 01:55:59;;;;;;;3.88;2.08;;;10.40;99.90;;;;;;5021575;28;20099;-67
2021/05/17 02:02:30;;;;;;;4.68;1.52;;;10.50;99.90;;;;;;5034887;28;20071;-67
2021/05/17 02:05:23;;;;;;;3.08;1.50;;;10.50;99.90;;;;;;5015067;28;20034;-67
2021/05/17 02:07:52;;;;;;;2.22;1.27;;;10.50;99.90;;;;;;5003728;28;20052;-67
2021/05/17 02:17:32;;;;;;;4.15;1.50;;;10.40;99.90;;;;;;5020897;28;20589;-66
2021/05/17 02:20:04;;;;;;;2.72;1.55;;;10.40;99.90;;;;;;5021267;28;20053;-68
2021/05/17 02:22:54;;;;;;;2.20;1.40;;;10.40;99.90;;;;;;5017264;28;20477;-68
2021/05/17 02:25:33;;;;;;;3.60;1.80;;;10.30;99.90;;;;;;5015591;28;20046;-68
2021/05/17 02:28:02;;;;;;;4.28;1.50;;;10.30;99.90;;;;;;5014050;28;20429;-66
2021/05/17 02:30:32;;;;;;;3.42;1.50;;;10.20;99.90;;;;;;5023088;28;20486;-68
2021/05/17 02:33:05;;;;;;;2.50;1.38;;;10.30;99.90;;;;;;5015015;28;20047;-67
2021/05/17 02:35:47;;;;;;;2.45;1.45;;;10.20;99.90;;;;;;5016817;28;20486;-67
2021/05/17 02:42:32;;;;;;;4.43;1.05;;;10.30;99.90;;;;;;5029227;28;20444;-67
2021/05/17 02:45:05;;;;;;;3.45;1.20;;;10.30;99.90;;;;;;5031280;28;20481;-66
2021/05/17 02:47:46;;;;;;;4.00;1.30;;;10.30;99.90;;;;;;5030558;28;20115;-67
2021/05/17 02:50:15;;;;;;;3.33;1.15;;;10.30;99.90;;;;;;5013957;28;20041;-68
2021/05/17 02:53:32;;;;;;;3.13;1.25;;;10.30;99.90;;;;;;4997998;28;20046;-67
2021/05/17 03:00:43;;;;;;;3.58;1.63;;;10.30;99.90;;;;;;5017231;28;20037;-67
2021/05/17 03:07:33;;;;;;;3.42;1.88;;;10.30;99.90;;;;;;5032071;28;20032;-68
2021/05/17 03:10:13;;;;;;;4.97;1.80;;;10.40;99.90;;;;;;5029289;28;20046;-68
2021/05/17 03:12:56;;;;;;;4.43;2.50;;;10.30;99.90;;;;;;5030589;28;20060;-66
2021/05/17 03:15:42;;;;;;;8.57;3.10;;;10.50;99.90;;;;;;5030683;28;20116;-68
2021/05/17 03:18:13;;;;;;;5.82;2.53;;;10.40;99.90;;;;;;5013792;28;20096;-68
2021/05/17 03:20:50;;;;;;;4.38;2.53;;;10.30;99.90;;;;;;5016649;28;20504;-67
2021/05/17 03:23:22;;;;;;;5.05;2.80;;;10.30;99.90;;;;;;5031098;28;20048;-66
2021/05/17 03:25:58;;;;;;;4.57;2.45;;;10.40;99.90;;;;;;5018051;28;20042;-69
2021/05/17 03:32:31;;;;;;;4.65;2.38;;;10.30;99.90;;;;;;5022808;28;20087;-66
2021/05/17 03:35:05;;;;;;;4.22;2.53;;;10.40;99.90;;;;;;5012899;28;20052;-66
2021/05/17 03:37:48;;;;;;;3.65;2.42;;;10.40;99.90;;;;;;5024635;28;20049;-72
2021/05/17 03:40:32;;;;;;;5.60;3.03;;;10.40;99.90;;;;;;4996799;28;20046;-68
2021/05/17 03:43:04;;;;;;;5.30;3.05;;;10.30;99.90;;;;;;5017841;28;20052;-65
2021/05/17 03:45:31;;;;;;;8.07;3.00;;;10.40;99.90;;;;;;4980617;28;20038;-65
2021/05/17 03:48:22;;;;;;;5.78;3.38;;;10.50;99.90;;;;;;5017547;28;20042;-67
2021/05/17 03:50:48;;;;;;;4.50;2.80;;;10.40;99.90;;;;;;5025790;28;20062;-67
2021/05/17 03:53:25;;;;;;;6.38;2.80;;;10.50;99.90;;;;;;5014984;28;20072;-68
2021/05/17 04:00:08;;;;;;;5.25;2.88;;;10.30;99.90;;;;;;5029803;28;20041;-67
2021/05/17 04:03:05;;;;;;;5.53;2.78;;;10.30;99.90;;;;;;5010079;28;20053;-67
2021/05/17 04:15:32;;;;;;;5.30;2.67;;;10.40;99.90;;;;;;5013091;28;20112;-67
2021/05/17 04:18:04;;;;;;;5.13;3.28;;;10.50;99.90;;;;;;5013675;28;20073;-68
2021/05/17 04:25:01;;;;;;;4.78;2.85;;;10.40;99.90;;;;;;5021128;28;20129;-68
2021/05/17 04:27:36;;;;;;;4.70;3.15;;;10.40;99.90;;;;;;5017862;28;20072;-68
2021/05/17 04:30:05;;;;;;;5.70;2.97;;;10.50;99.90;;;;;;5012970;28;20033;-67
2021/05/17 04:32:37;;;;;;;7.80;3.90;;;10.50;99.90;;;;;;5014219;28;20045;-68
2021/05/17 04:35:30;;;;;;;5.88;3.33;;;10.50;99.90;;;;;;5015015;28;20402;-68
2021/05/17 04:38:11;;;;;;;7.03;4.32;;;10.50;99.90;;;;;;5029983;28;20405;-67
2021/05/17 04:40:46;;;;;;;9.00;3.88;;;10.50;99.90;;;;;;5013378;28;20121;-67
2021/05/17 04:43:33;;;;;;;8.43;3.75;;;10.80;99.90;;;;;;5017732;28;20038;-67
2021/05/17 04:46:06;;;;;;;5.72;3.55;;;10.60;99.90;;;;;;5020033;28;20451;-67
2021/05/17 04:53:02;;;;;;;6.53;3.33;;;10.60;99.90;;;;;;5018318;28;20284;-68
2021/05/17 05:00:16;;;;;;;6.00;3.38;;;10.70;99.90;;;;;;5016379;28;20033;-68
2021/05/17 05:03:07;;;;;;;5.63;3.53;;;10.70;99.90;;;;;;5032368;28;20045;-67
2021/05/17 05:05:54;;;;;;;6.65;3.67;;;10.70;99.90;;;;;;5019348;28;20080;-67
2021/05/17 05:12:31;;;;;;;6.22;3.83;;;10.70;99.90;;;;;;5016248;28;20064;-68
2021/05/17 05:15:15;;;;;;;9.50;4.18;;;10.70;99.90;;;;;;5032932;28;20045;-68
2021/05/17 05:26:10;;;;;;;7.93;2.88;;;10.80;99.90;;;;;;5028921;28;20049;-68
2021/05/17 05:34:50;;;;;;;5.22;3.17;;;10.80;99.90;;;;;;5021463;28;20060;-68
2021/05/17 05:37:36;;;;;;;6.25;3.67;;;10.90;99.90;;;;;;5034205;28;20048;-68
2021/05/17 05:40:06;;;;;;;7.13;3.83;;;10.90;99.90;;;;;;5017447;28;20053;-68
2021/05/17 05:42:34;;;;;;;7.05;3.92;;;10.80;99.90;;;;;;5021748;28;20056;-67
2021/05/17 05:45:10;;;;;;;7.85;4.57;;;10.80;99.90;;;;;;5015643;28;20044;-68
2021/05/17 05:47:38;;;;;;;9.02;4.80;;;10.80;99.90;;;;;;5016117;28;20371;-67
2021/05/17 05:50:16;;;;;;;7.85;4.65;;;10.90;99.90;;;;;;5033518;28;20111;-67
2021/05/17 05:52:41;;;;;;;8.68;4.65;;;10.90;99.90;;;;;;5015130;28;20105;-68
2021/05/17 05:55:09;;;;;;;7.30;3.88;;;10.90;99.90;;;;;;5007736;28;20493;-67
2021/05/17 06:05:31;;;;;;;7.75;3.95;;;10.90;99.90;;;;;;5031676;28;20091;-67
2021/05/17 06:08:12;;;;;;;7.70;3.97;;;11.00;99.90;;;;;;5018926;28;20089;-67
2021/05/17 06:10:50;;;;;;;7.30;3.97;;;11.00;99.90;;;;;;5028464;28;20050;-67
2021/05/17 06:13:24;;;;;;;6.63;3.72;;;11.10;99.90;;;;;;5014781;28;20042;-65
2021/05/17 06:19:59;;;;;;;5.68;3.58;;;11.20;99.90;;;;;;5015198;28;20397;-67
2021/05/17 06:22:37;;;;;;;7.50;3.67;;;11.30;99.90;;;;;;5017081;28;20042;-67
2021/05/17 06:25:36;;;;;;;7.25;4.30;;;11.30;99.90;;;;;;5027107;28;20045;-67
2021/05/17 06:28:22;;;;;;;7.85;4.57;;;11.40;99.90;;;;;;5030450;28;20465;-67
2021/05/17 06:31:08;;;;;;;8.65;4.20;;;11.40;99.90;;;;;;5018967;28;20401;-71
2021/05/17 06:33:47;;;;;;;8.05;4.53;;;11.40;99.90;;;;;;4997183;28;20044;-67
2021/05/17 06:40:02;;;;;;;8.13;4.10;;;11.50;99.90;;;;;;5027402;28;20124;-67
2021/05/17 06:43:06;;;;;;;9.40;5.20;;;11.60;99.90;;;;;;5015272;28;20113;-68
2021/05/17 06:45:37;;;;;;;5.78;3.70;;;11.50;99.90;;;;;;5015011;28;20073;-68
2021/05/17 06:48:08;;;;;;;7.38;4.35;;;11.60;99.90;;;;;;5001433;28;20046;-66
2021/05/17 06:54:29;;;;;;;8.07;4.00;;;11.70;99.90;;;;;;5021364;28;20558;-70
2021/05/17 07:13:12;;;;;;;6.80;4.28;;;12.00;99.90;;;;;;4999162;28;20117;-70
2021/05/17 07:15:39;;;;;;;6.43;4.32;;;11.90;99.90;;;;;;5019212;28;20052;-70
2021/05/17 07:25:16;;;;;;;6.22;4.03;;;12.00;99.90;;;;;;5032375;28;20128;-67
2021/05/17 07:35:01;;;;;;;6.07;4.05;;;12.20;99.90;;;;;;5032429;28;20436;-72
2021/05/17 07:37:34;;;;;;;6.97;4.28;;;12.20;99.90;;;;;;5033525;28;20041;-70
2021/05/17 07:40:25;;;;;;;8.40;4.55;;;12.20;99.90;;;;;;5013764;28;20384;-70
2021/05/17 07:43:02;;;;;;;7.68;4.28;;;12.30;99.90;;;;;;5028085;28;20046;-68
2021/05/17 07:45:43;;;;;;;7.45;4.28;;;12.30;99.90;;;;;;5014373;28;20169;-68
2021/05/17 07:52:33;;;;;;;6.00;3.65;;;12.40;99.90;;;;;;5013695;28;20516;-67
2021/05/17 07:55:04;;;;;;;6.95;4.47;;;12.50;99.90;;;;;;5028553;28;20057;-67
2021/05/17 07:57:45;;;;;;;10.38;4.85;;;12.50;99.90;;;;;;5021290;28;20057;-68
2021/05/17 08:00:27;;;;;;;8.77;5.00;;;12.50;99.90;;;;;;5008882;28;20046;-71
2021/05/17 08:03:11;;;;;;;10.10;5.53;;;12.60;99.90;;;;;;4996000;28;20136;-70
2021/05/17 08:05:57;;;;;;;6.78;4.75;;;12.60;99.90;;;;;;5001178;28;20057;-69
2021/05/17 08:12:31;;;;;;;8.07;4.97;;;12.50;99.90;;;;;;5015676;28;20519;-67
2021/05/17 08:15:04;;;;;;;8.43;5.50;;;12.60;99.90;;;;;;5031523;28;20045;-68
2021/05/17 08:18:28;;;;;;;10.13;5.80;;;12.70;99.90;;;;;;5013358;28;20042;-68
2021/05/17 08:25:07;;;;;;;8.40;5.32;;;12.80;99.90;;;;;;5034137;28;20495;-67
2021/05/17 08:27:45;;;;;;;11.93;6.80;;;12.90;99.90;;;;;;5017276;28;20046;-70
2021/05/17 08:30:17;;;;;;;10.32;5.95;;;13.00;99.90;;;;;;5033054;28;20139;-70
2021/05/17 08:33:13;;;;;;;10.95;6.03;;;12.90;99.90;;;;;;5035032;28;20370;-67
2021/05/17 08:35:49;;;;;;;8.75;5.63;;;13.10;99.90;;;;;;4999270;28;20051;-68
2021/05/17 08:38:46;;;;;;;11.55;7.15;;;13.20;99.90;;;;;;5018881;28;20094;-69
2021/05/17 08:45:34;;;;;;;9.70;5.53;;;13.50;99.90;;;;;;5017104;28;20036;-68
2021/05/17 08:48:07;;;;;;;9.95;6.25;;;13.60;99.90;;;;;;5017549;28;20126;-66
2021/05/17 08:50:41;;;;;;;9.32;5.80;;;13.60;99.90;;;;;;5029150;28;20048;-67
2021/05/17 09:01:16;;;;;;;;;;;13.70;99.90;;;;;;5016825;28;20068;-68
2021/05/17 09:07:45;;;;;;;7.70;4.88;;;14.00;99.90;;;;;;5024891;28;20036;-67
2021/05/17 09:10:19;;;;;;;11.90;5.03;;;14.20;99.90;;;;;;5016253;28;20123;-69
2021/05/17 09:13:11;;;;;;;8.18;5.30;;;14.40;99.90;;;;;;5028042;28;20049;-65
2021/05/17 09:15:50;;;;;;;9.27;5.70;;;14.50;99.90;;;;;;5020722;28;20072;-66
2021/05/17 09:18:27;;;;;;;6.75;4.47;;;14.50;99.90;;;;;;4999548;28;20064;-65
2021/05/17 09:21:05;;;;;;;8.95;4.50;;;14.50;99.90;;;;;;5022363;28;20037;-66
2021/05/17 09:27:38;;;;;;;7.95;4.70;;;14.40;99.90;;;;;;5015822;28;20480;-67
2021/05/17 09:30:12;;;;;;;8.77;4.40;;;14.20;99.90;;;;;;5014797;28;20489;-67
2021/05/17 09:32:58;;;;;;;11.38;5.28;;;14.20;99.90;;;;;;5034153;28;20474;-65
2021/05/17 09:35:47;;;;;;;7.03;4.57;;;14.10;99.90;;;;;;5022339;28;20052;-66
2021/05/17 09:45:56;;;;;;;8.88;5.30;;;14.00;99.90;;;;;;5015792;28;20137;-65
2021/05/17 09:48:46;;;;;;;8.40;4.53;;;13.90;99.90;;;;;;5026837;28;20046;-65
2021/05/17 09:55:11;;;;;;;8.10;3.95;;;13.90;99.90;;;;;;5019065;28;20096;-70
2021/05/17 09:58:39;;;;;;;7.32;4.40;;;13.90;99.90;;;;;;5008300;28;20089;-70
2021/05/17 10:01:25;;;;;;;6.80;4.03;;;13.90;99.90;;;;;;5018185;28;20140;-68
2021/05/17 10:04:21;;;;;;;6.85;4.28;;;14.00;99.90;;;;;;4998052;28;20485;-68
2021/05/17 10:07:34;;;;;;;6.28;4.35;;;14.00;99.90;;;;;;4997831;28;20045;-68
2021/05/17 10:10:09;;;;;;;7.25;3.95;;;14.10;99.90;;;;;;5022103;28;20034;-67
2021/05/17 10:12:41;;;;;;;8.75;4.53;;;14.20;99.90;;;;;;5028104;28;20545;-69
2021/05/17 10:15:13;;;;;;;8.57;4.63;;;14.20;99.90;;;;;;5013852;28;20048;-66
2021/05/17 10:18:21;;;;;;;10.07;5.10;;;14.40;99.90;;;;;;5032122;28;20431;-66
2021/05/17 10:21:04;;;;;;;5.55;3.75;;;14.50;99.90;;;;;;5019512;28;20042;-65
2021/05/17 10:23:31;;;;;;;7.25;4.00;;;14.50;99.90;;;;;;5015240;28;20052;-67
2021/05/17 10:26:37;;;;;;;7.05;4.03;;;14.60;99.90;;;;;;5031351;28;20397;-67
2021/05/17 10:29:05;;;;;;;9.70;4.28;;;14.70;99.90;;;;;;5019211;28;20045;-66
2021/05/17 10:31:52;;;;;;;6.88;4.32;;;14.70;99.90;;;;;;5031312;28;20045;-66
2021/05/17 10:34:20;;;;;;;9.43;3.83;;;14.80;99.90;;;;;;5018832;28;20053;-67
2021/05/17 10:36:56;;;;;;;6.85;3.78;;;14.80;99.90;;;;;;5020500;28;20393;-67
2021/05/17 10:39:55;;;;;;;6.55;3.97;;;14.80;99.90;;;;;;5015751;28;20042;-67
2021/05/17 10:53:46;;;;;;;6.03;3.40;;;14.80;99.90;;;;;;5014021;28;20635;-67
2021/05/17 10:56:43;;;;;;;5.30;2.92;;;14.80;99.90;;;;;;5012897;28;20054;-67
2021/05/17 11:03:32;;;;;;;6.43;2.65;;;14.80;99.90;;;;;;5017365;28;20041;-68
2021/05/17 11:06:08;;;;;;;5.57;2.35;;;14.80;99.90;;;;;;5030731;28;20059;-69
2021/05/17 11:08:58;;;;;;;7.43;3.20;;;14.80;99.90;;;;;;5034008;28;20053;-68
2021/05/17 11:11:25;;;;;;;4.20;2.55;;;14.80;99.90;;;;;;5015816;28;20054;-66
2021/05/17 11:17:52;;;;;;;6.80;2.67;;;14.80;99.90;;;;;;5019904;28;20468;-69
2021/05/17 11:24:24;;;;;;;6.28;3.08;;;14.70;99.90;;;;;;5016857;28;20053;-67
2021/05/17 11:26:55;;;;;;;3.97;2.38;;;14.70;99.90;;;;;;5019945;28;20058;-65
2021/05/17 11:29:43;;;;;;;6.38;3.20;;;14.80;99.90;;;;;;5013760;28;20049;-65
2021/05/17 11:32:18;;;;;;;6.82;3.30;;;14.70;99.90;;;;;;5018011;28;20065;-64
2021/05/17 11:42:19;;;;;;;8.13;3.97;;;14.50;99.90;;;;;;5024178;28;20488;-66
2021/05/17 11:49:17;;;;;;;6.90;3.20;;;14.40;99.90;;;;;;5033111;28;20034;-65
2021/05/17 11:51:57;;;;;;;6.68;2.95;;;14.40;99.90;;;;;;5013944;28;20092;-67
2021/05/17 11:54:50;;;;;;;4.47;2.47;;;14.50;99.90;;;;;;4996836;28;20437;-65
2021/05/17 11:57:38;;;;;;;3.20;1.85;;;14.60;99.90;;;;;;5015382;28;20440;-65
2021/05/17 12:04:34;;;;;;;6.88;2.20;;;14.80;99.90;;;;;;5008563;28;20461;-66
2021/05/17 12:07:24;;;;;;;2.63;1.17;;;14.90;99.90;;;;;;4995707;28;20089;-66
2021/05/17 12:14:19;;;;;;;2.15;1.00;;;15.20;99.90;;;;;;5004402;28;20053;-68
2021/05/17 12:17:14;;;;;;;4.72;2.95;;;15.40;99.90;;;;;;4992552;28;20042;-68
2021/05/17 12:34:22;;;;;;;6.65;4.38;;;14.90;99.90;;;;;;5010873;28;20088;-67
2021/05/17 12:36:54;;;;;;;8.40;4.45;;;14.80;99.90;;;;;;5001589;28;20038;-67
2021/05/17 12:39:21;;;;;;;9.13;4.45;;;14.70;99.90;;;;;;4996253;28;20046;-65
2021/05/17 12:41:53;;;;;;;6.13;4.30;;;14.60;99.90;;;;;;4995040;28;20042;-66
2021/05/17 12:44:30;;;;;;;5.55;3.83;;;14.60;99.90;;;;;;4988803;28;20064;-68
2021/05/17 12:47:23;;;;;;;5.25;3.28;;;14.40;99.90;;;;;;4997799;28;20038;-66
2021/05/17 12:54:25;;;;;;;5.93;2.97;;;14.20;99.90;;;;;;4996337;28;20147;-67
2021/05/17 12:57:05;;;;;;;4.25;2.55;;;14.20;99.90;;;;;;4996278;28;20038;-66
2021/05/17 12:59:55;;;;;;;5.15;2.70;;;14.30;99.90;;;;;;5008960;28;20131;-67
2021/05/17 13:06:54;;;;;;;4.47;3.05;;;14.60;99.90;;;;;;5021581;28;20531;-68
2021/05/17 13:09:27;;;;;;;6.47;3.75;;;14.50;99.90;;;;;;5016834;28;20048;-66
2021/05/17 13:12:18;;;;;;;6.25;3.50;;;14.50;99.90;;;;;;5016375;28;20397;-66
2021/05/17 13:14:53;;;;;;;6.05;4.03;;;14.50;99.90;;;;;;4998668;28;20125;-65
2021/05/17 13:18:10;;;;;;;6.85;3.83;;;14.40;99.90;;;;;;4999140;28;20069;-66
2021/05/17 13:36:56;;;;;;;8.48;5.00;;;14.00;99.90;;;;;;5030481;28;20400;-66
2021/05/17 13:39:24;;;;;;;6.97;4.10;;;14.20;99.90;;;;;;5019370;28;20054;-65
2021/05/17 13:41:59;;;;;;;8.52;4.57;;;14.10;99.90;;;;;;5033152;28;20042;-66
2021/05/17 13:44:26;;;;;;;6.80;4.38;;;14.10;99.90;;;;;;5020133;28;20437;-67
2021/05/17 13:46:53;;;;;;;7.93;4.20;;;14.10;99.90;;;;;;5015810;28;20046;-66
2021/05/17 13:49:22;;;;;;;7.00;4.25;;;14.10;99.90;;;;;;5029940;28;20532;-67
2021/05/17 13:51:54;;;;;;;6.75;3.72;;;14.00;99.90;;;;;;5017626;28;20053;-66
2021/05/17 13:54:33;;;;;;;6.88;3.88;;;14.10;99.90;;;;;;5034984;28;20132;-66
2021/05/17 13:57:12;;;;;;;5.45;3.08;;;14.10;99.90;;;;;;5023947;28;20191;-66
2021/05/17 13:59:43;;;;;;;4.15;3.13;;;14.20;99.90;;;;;;5018105;28;20081;-65
2021/05/17 14:02:13;;;;;;;7.65;3.83;;;14.20;99.90;;;;;;4999073;28;20041;-66
2021/05/17 14:04:55;;;;;;;5.13;3.28;;;14.20;99.90;;;;;;5018222;28;20052;-65
2021/05/17 14:07:24;;;;;;;4.72;2.90;;;14.30;99.90;;;;;;5015182;28;20041;-65
2021/05/17 14:14:23;;;;;;;8.48;3.35;;;14.30;99.90;;;;;;5034813;28;20484;-68
2021/05/17 14:24:22;;;;;;;7.38;3.38;;;14.90;99.90;;;;;;5033841;28;20044;-67
2021/05/17 14:26:57;;;;;;;5.68;2.78;;;15.00;99.90;;;;;;5031640;28;20120;-67
2021/05/17 14:29:48;;;;;;;6.25;2.20;;;15.10;99.90;;;;;;5014912;28;20121;-68
2021/05/17 14:32:41;;;;;;;4.50;2.72;;;15.20;99.90;;;;;;5007347;28;20077;-65
2021/05/17 14:35:37;;;;;;;5.28;2.80;;;15.20;99.90;;;;;;5013410;28;20069;-66
2021/05/17 14:38:10;;;;;;;4.15;2.55;;;15.20;99.90;;;;;;5000422;28;20054;-66
2021/05/17 14:45:01;;;;;;;7.03;2.30;;;15.20;99.90;;;;;;5014474;28;20169;-65
2021/05/17 14:52:36;;;;;;;6.88;2.15;;;14.90;99.90;;;;;;5084533;28;20473;-65
2021/05/17 14:55:12;;;;;;;6.70;2.67;;;15.00;99.90;;;;;;5079684;28;20506;-66
2021/05/17 15:01:58;;;;;;;5.35;2.15;;;14.90;99.90;;;;;;5067761;28;20036;-65
2021/05/17 15:04:41;;;;;;;5.82;2.53;;;14.90;99.90;;;;;;5075393;28;20447;-65
2021/05/17 15:07:20;;;;;;;3.70;2.17;;;15.00;99.90;;;;;;5067649;28;20041;-64
2021/05/17 15:10:03;;;;;;;4.47;2.38;;;15.00;99.90;;;;;;5051553;28;20043;-64
2021/05/17 15:12:30;;;;;;;5.80;2.40;;;15.00;99.90;;;;;;5066036;28;20041;-65
2021/05/17 15:15:06;;;;;;;3.90;2.17;;;14.90;99.90;;;;;;5067310;28;20044;-66
2021/05/17 15:17:39;;;;;;;5.47;2.83;;;14.90;99.90;;;;;;5041960;28;20399;-65
2021/05/17 15:20:15;;;;;;;5.15;2.83;;;14.80;99.90;;;;;;5081081;28;20067;-65
2021/05/17 15:26:58;;;;;;;7.72;3.55;;;14.70;99.90;;;;;;5065117;28;20044;-66
2021/05/17 15:29:29;;;;;;;5.43;3.45;;;14.60;99.90;;;;;;5052947;28;20037;-65
2021/05/17 15:32:06;;;;;;;5.93;3.72;;;14.60;99.90;;;;;;5064223;28;20036;-66
2021/05/17 15:34:38;;;;;;;7.40;4.35;;;14.40;99.90;;;;;;5061950;28;20033;-65
2021/05/17 15:37:10;;;;;;;6.55;4.05;;;14.40;99.90;;;;;;5063218;28;20166;-65
2021/05/17 15:40:07;;;;;;;7.82;4.25;;;14.30;99.90;;;;;;5055260;28;20049;-65
2021/05/17 15:42:45;;;;;;;9.93;4.82;;;14.30;99.90;;;;;;5089854;28;20044;-65
2021/05/17 15:45:15;;;;;;;9.05;5.38;;;14.30;99.90;;;;;;5064958;28;20045;-66
2021/05/17 15:47:48;;;;;;;9.52;5.15;;;14.20;99.90;;;;;;5072439;28;20136;-66
2021/05/17 15:54:41;;;;;;;8.15;5.13;;;13.90;99.90;;;;;;5054219;28;20087;-68
2021/05/17 15:57:29;;;;;;;10.30;5.80;;;14.00;99.90;;;;;;5063857;28;20062;-67
2021/05/17 16:00:17;;;;;;;12.80;6.10;;;13.90;99.90;;;;;;5055777;28;20041;-67
2021/05/17 16:02:49;;;;;;;10.48;5.93;;;13.90;99.90;;;;;;5051580;28;20045;-66
2021/05/17 16:05:26;;;;;;;12.82;6.10;;;13.90;99.90;;;;;;5046124;28;20128;-68
2021/05/17 16:08:02;;;;;;;11.85;6.18;;;13.80;99.90;;;;;;5066376;28;20060;-67
2021/05/17 16:11:03;;;;;;;12.45;6.38;;;13.90;99.90;;;;;;5056983;28;20044;-66
2021/05/17 16:17:36;;;;;;;12.55;6.32;;;13.70;99.90;;;;;;5052513;28;20067;-67
2021/05/17 16:22:55;;;;;;;10.35;5.88;;;13.60;99.90;;;;;;5046826;28;20455;-67
2021/05/17 16:29:06;;;;;;;12.90;6.82;;;13.70;99.90;;;;;;5057895;28;20047;-65
2021/05/17 16:32:11;;;;;;;12.50;7.82;;;13.70;99.90;;;;;;5053656;28;20048;-68
2021/05/17 16:34:44;;;;;;;13.07;6.13;;;13.60;99.90;;;;;;5054443;28;20045;-67
2021/05/17 16:37:24;;;;;;;14.67;7.17;;;13.60;99.90;;;;;;5047994;28;20073;-67
2021/05/17 16:39:56;;;;;;;11.07;6.72;;;13.60;99.90;;;;;;5056010;28;20045;-66
2021/05/17 16:42:55;;;;;;;8.63;5.20;;;13.60;99.90;;;;;;5054544;28;20033;-66
2021/05/17 16:49:54;;;;;;;17.42;9.63;;;13.40;99.90;;;;;;5042112;28;20400;-68
2021/05/17 16:53:11;;;;;;;13.10;7.18;;;13.10;99.90;;;;;;5070663;28;20036;-68
2021/05/17 16:55:41;;;;;;;17.92;7.55;;;13.00;99.90;;;;;;5043357;28;20077;-68
2021/05/17 17:02:32;;;;;;;15.20;8.15;;;12.90;99.90;;;;;;5054619;28;20065;-69
2021/05/17 17:05:11;;;;;;;17.55;7.63;;;12.60;99.90;;;;;;5039014;28;20076;-68
2021/05/17 17:08:00;;;;;;;19.45;8.30;;;12.60;99.90;;;;;;5053720;28;20052;-69
2021/05/17 17:14:49;;;;;;;13.65;7.28;;;12.30;99.90;;;;;;5055145;28;20032;-68
2021/05/17 17:17:52;;;;;;;13.38;6.43;;;12.20;99.90;;;;;;5049998;28;20036;-67
2021/05/17 17:20:47;;;;;;;13.55;6.10;;;12.10;99.90;;;;;;5035960;28;20046;-68
2021/05/17 17:27:35;;;;;;;18.83;6.70;;;12.10;99.90;;;;;;5066843;28;20085;-68
2021/05/17 17:30:19;;;;;;;;;;;12.00;99.90;;;;;;5066071;28;20040;-68
2021/05/17 17:33:12;;;;;;;10.13;4.75;;;12.00;99.90;;;;;;5052004;28;20383;-67
2021/05/17 17:35:53;;;;;;;13.73;6.03;;;12.00;99.90;;;;;;5047575;28;20051;-68
2021/05/17 17:38:24;;;;;;;13.23;5.32;;;12.00;99.90;;;;;;5053489;28;20287;-67
2021/05/17 17:44:51;;;;;;;13.63;5.50;;;11.90;99.90;;;;;;5053921;28;20589;-69
2021/05/17 17:47:20;;;;;;;13.88;4.57;;;11.90;99.90;;;;;;5045732;28;20382;-65
2021/05/17 17:50:38;;;;;;;9.77;4.80;;;12.00;99.90;;;;;;5060567;28;20063;-66
2021/05/17 17:53:29;;;;;;;9.85;4.70;;;12.00;99.90;;;;;;5060158;28;20033;-65
2021/05/17 17:56:23;;;;;;;14.18;5.25;;;12.00;99.90;;;;;;5047492;28;20400;-65
2021/05/17 18:02:29;;;;;;;13.68;5.68;;;11.90;99.90;;;;;;5036271;28;20072;-65
2021/05/17 18:05:33;;;;;;;12.77;5.68;;;11.90;99.90;;;;;;5045702;28;20074;-65
2021/05/17 18:07:59;;;;;;;11.75;5.47;;;11.90;99.90;;;;;;5038520;28;20041;-66
2021/05/17 18:14:23;;;;;;;14.50;6.28;;;11.80;99.90;;;;;;5057718;28;20089;-66
2021/05/17 18:17:23;;;;;;;13.75;5.07;;;11.70;99.90;;;;;;5063623;28;20500;-66
2021/05/17 18:19:57;;;;;;;13.00;5.82;;;11.70;99.90;;;;;;5047498;28;20041;-65
2021/05/17 18:30:23;;;;;;;9.75;3.63;;;11.70;99.90;;;;;;5053054;28;20052;-65
2021/05/17 18:33:03;;;;;;;;;;;11.60;99.90;;;;;;5063439;28;20064;-65
2021/05/17 18:36:14;;;;;;;7.60;3.75;;;11.60;99.90;;;;;;5041481;28;19921;-67
2021/05/17 18:38:59;;;;;;;11.73;4.40;;;11.60;99.90;;;;;;5031439;28;20078;-66
2021/05/17 18:53:19;;;;;;;13.52;4.80;;;11.50;99.90;;;;;;5033283;28;20038;-66
2021/05/17 18:56:38;;;;;;;12.02;3.67;;;11.50;99.90;;;;;;5051642;28;20039;-66
2021/05/17 19:00:06;;;;;;;7.47;2.90;;;11.60;99.90;;;;;;5037080;28;20073;-67
2021/05/17 19:10:46;;;;;;;11.93;4.13;;;11.60;99.90;;;;;;5050924;28;20044;-65
2021/05/17 19:13:36;;;;;;;11.02;4.18;;;11.50;99.90;;;;;;5051436;28;20436;-65
2021/05/17 19:16:30;;;;;;;13.65;5.00;;;11.50;99.90;;;;;;5051385;28;20483;-65
2021/05/17 19:19:06;;;;;;;19.80;5.93;;;11.50;99.90;;;;;;5049093;28;20053;-66
2021/05/17 19:21:35;;;;;;;10.02;4.18;;;11.50;99.90;;;;;;5042215;28;20044;-65
2021/05/17 19:24:03;;;;;;;10.45;3.95;;;11.40;99.90;;;;;;5037282;28;20468;-65
2021/05/17 19:30:57;;;;;;;7.60;3.03;;;11.50;99.90;;;;;;5032789;28;20036;-65
2021/05/17 19:33:34;;;;;;;10.82;3.85;;;11.50;99.90;;;;;;5071796;28;20045;-65
2021/05/17 19:36:00;;;;;;;9.13;3.70;;;11.50;99.90;;;;;;5066682;28;20127;-65
2021/05/17 19:38:28;;;;;;;12.75;4.75;;;11.50;99.90;;;;;;5053824;28;20041;-64
2021/05/17 19:40:58;;;;;;;14.23;3.80;;;11.50;99.90;;;;;;5042747;28;20045;-64
2021/05/17 19:43:35;;;;;;;12.52;3.78;;;11.40;99.90;;;;;;5056330;28;20048;-64
2021/05/17 19:46:07;;;;;;;8.23;2.88;;;11.50;99.90;;;;;;5053533;28;20481;-66
2021/05/17 19:48:34;;;;;;;9.30;3.00;;;11.50;99.90;;;;;;5056725;28;20041;-66
2021/05/17 19:51:01;;;;;;;8.48;2.88;;;11.50;99.90;;;;;;5042719;28;20054;-65
2021/05/17 19:53:51;;;;;;;11.68;3.28;;;11.50;99.90;;;;;;5044241;28;20578;-66
2021/05/17 19:56:42;;;;;;;10.25;3.72;;;11.50;99.90;;;;;;5041281;28;20049;-66
2021/05/17 19:59:18;;;;;;;12.43;3.72;;;11.40;99.90;;;;;;5035074;28;20080;-66
2021/05/17 20:01:51;;;;;;;8.48;3.03;;;11.40;99.90;;;;;;5063381;28;20476;-67
2021/05/17 20:08:29;;;;;;;9.40;2.63;;;11.40;99.90;;;;;;5041682;28;20079;-65
2021/05/17 20:11:04;;;;;;;7.18;2.42;;;11.40;99.90;;;;;;5052284;28;20470;-65
2021/05/17 20:13:36;;;;;;;8.52;3.05;;;11.50;99.90;;;;;;5041488;28;20044;-68
2021/05/17 20:16:10;;;;;;;8.73;2.95;;;11.40;99.90;;;;;;5050505;28;20123;-67